sensor_id;sensor_type;location;lat;lon;timestamp;pressure;altitude;pressure_sealevel;temperature;humidity
75166;BME280;63747;48.042;10.088;2024-02-26T00:01:16;93359.03;;;2.11;59.61
75166;BME280;63747;48.042;10.088;2024-02-26T00:04:16;93364.13;;;2.05;59.74
75166;BME280;63747;48.042;10.088;2024-02-26T00:07:17;93355.31;;;2.06;59.90
75166;BME280;63747;48.042;10.088;2024-02-26T00:10:18;93353.97;;;2.10;59.83
75166;BME280;63747;48.042;10.088;2024-02-26T00:13:19;93351.22;;;2.11;59.81
75166;BME280;63747;48.042;10.088;2024-02-26T00:16:20;93340.13;;;2.01;60.13
75166;BME280;63747;48.042;10.088;2024-02-26T00:19:21;93340.94;;;1.94;60.33
75166;BME280;63747;48.042;10.088;2024-02-26T00:22:21;93348.97;;;1.92;60.57
75166;BME280;63747;48.042;10.088;2024-02-26T00:25:22;93338.97;;;1.96;60.56
75166;BME280;63747;48.042;10.088;2024-02-26T00:28:23;93336.38;;;1.87;60.34
75166;BME280;63747;48.042;10.088;2024-02-26T00:31:24;93352.38;;;1.93;60.19
75166;BME280;63747;48.042;10.088;2024-02-26T00:34:25;93351.88;;;1.89;60.21
75166;BME280;63747;48.042;10.088;2024-02-26T00:37:26;93354.34;;;1.82;60.47
75166;BME280;63747;48.042;10.088;2024-02-26T00:40:27;93353.06;;;1.86;60.54
75166;BME280;63747;48.042;10.088;2024-02-26T00:43:27;93349.44;;;1.87;60.33
75166;BME280;63747;48.042;10.088;2024-02-26T00:46:28;93340.97;;;1.85;60.05
75166;BME280;63747;48.042;10.088;2024-02-26T00:49:29;93336.06;;;1.91;60.26
75166;BME280;63747;48.042;10.088;2024-02-26T00:52:29;93332.09;;;2.03;60.13
75166;BME280;63747;48.042;10.088;2024-02-26T00:55:30;93330.81;;;1.99;60.19
75166;BME280;63747;48.042;10.088;2024-02-26T00:58:31;93333.91;;;2.02;60.27
75166;BME280;63747;48.042;10.088;2024-02-26T01:01:31;93327.69;;;2.03;60.09
75166;BME280;63747;48.042;10.088;2024-02-26T01:04:32;93329.66;;;2.01;60.35
75166;BME280;63747;48.042;10.088;2024-02-26T01:07:34;93328.50;;;2.12;59.80
75166;BME280;63747;48.042;10.088;2024-02-26T01:10:36;93323.56;;;2.17;59.92
75166;BME280;63747;48.042;10.088;2024-02-26T01:13:36;93323.41;;;2.19;59.97
75166;BME280;63747;48.042;10.088;2024-02-26T01:16:37;93322.44;;;2.20;59.90
75166;BME280;63747;48.042;10.088;2024-02-26T01:19:38;93320.13;;;2.16;60.07
75166;BME280;63747;48.042;10.088;2024-02-26T01:22:38;93312.28;;;2.16;60.14
75166;BME280;63747;48.042;10.088;2024-02-26T01:25:40;93308.06;;;2.15;60.33
75166;BME280;63747;48.042;10.088;2024-02-26T01:28:42;93308.88;;;2.16;59.91
75166;BME280;63747;48.042;10.088;2024-02-26T01:31:43;93302.50;;;2.10;59.98
75166;BME280;63747;48.042;10.088;2024-02-26T01:34:44;93316.94;;;1.98;60.20
75166;BME280;63747;48.042;10.088;2024-02-26T01:37:44;93317.09;;;1.97;60.27
75166;BME280;63747;48.042;10.088;2024-02-26T01:40:45;93320.88;;;1.94;60.41
75166;BME280;63747;48.042;10.088;2024-02-26T01:43:46;93315.50;;;1.87;60.63
75166;BME280;63747;48.042;10.088;2024-02-26T01:46:47;93328.06;;;1.76;60.79
75166;BME280;63747;48.042;10.088;2024-02-26T01:49:48;93315.69;;;1.61;61.26
75166;BME280;63747;48.042;10.088;2024-02-26T01:52:50;93315.53;;;1.55;61.71
75166;BME280;63747;48.042;10.088;2024-02-26T01:55:51;93308.69;;;1.54;61.62
75166;BME280;63747;48.042;10.088;2024-02-26T01:58:52;93315.53;;;1.55;61.57
75166;BME280;63747;48.042;10.088;2024-02-26T02:01:55;93310.00;;;1.66;62.09
75166;BME280;63747;48.042;10.088;2024-02-26T02:04:57;93316.34;;;1.72;62.05
75166;BME280;63747;48.042;10.088;2024-02-26T02:07:58;93310.59;;;1.76;62.04
75166;BME280;63747;48.042;10.088;2024-02-26T02:10:59;93315.16;;;1.82;62.04
75166;BME280;63747;48.042;10.088;2024-02-26T02:14:00;93306.03;;;1.86;61.76
75166;BME280;63747;48.042;10.088;2024-02-26T02:17:01;93310.28;;;1.87;61.85
75166;BME280;63747;48.042;10.088;2024-02-26T02:20:02;93312.88;;;1.87;61.97
75166;BME280;63747;48.042;10.088;2024-02-26T02:23:03;93314.81;;;1.94;61.93
75166;BME280;63747;48.042;10.088;2024-02-26T02:26:04;93321.84;;;1.93;62.04
75166;BME280;63747;48.042;10.088;2024-02-26T02:29:06;93317.75;;;1.99;61.71
75166;BME280;63747;48.042;10.088;2024-02-26T02:32:08;93321.50;;;1.96;61.73
75166;BME280;63747;48.042;10.088;2024-02-26T02:35:09;93325.06;;;2.03;61.52
75166;BME280;63747;48.042;10.088;2024-02-26T02:38:09;93325.75;;;2.05;61.53
75166;BME280;63747;48.042;10.088;2024-02-26T02:41:10;93326.88;;;2.11;61.35
75166;BME280;63747;48.042;10.088;2024-02-26T02:44:11;93326.53;;;2.14;61.12
75166;BME280;63747;48.042;10.088;2024-02-26T02:47:11;93324.06;;;2.21;60.78
75166;BME280;63747;48.042;10.088;2024-02-26T02:50:12;93328.28;;;2.22;60.59
75166;BME280;63747;48.042;10.088;2024-02-26T02:53:13;93324.06;;;2.21;60.51
75166;BME280;63747;48.042;10.088;2024-02-26T02:56:16;93336.34;;;2.12;60.95
75166;BME280;63747;48.042;10.088;2024-02-26T02:59:16;93329.09;;;2.22;60.82
75166;BME280;63747;48.042;10.088;2024-02-26T03:02:17;93327.78;;;2.26;60.85
75166;BME280;63747;48.042;10.088;2024-02-26T03:05:18;93325.19;;;2.26;61.36
75166;BME280;63747;48.042;10.088;2024-02-26T03:08:19;93330.91;;;2.22;61.46
75166;BME280;63747;48.042;10.088;2024-02-26T03:11:19;93329.84;;;2.00;61.95
75166;BME280;63747;48.042;10.088;2024-02-26T03:14:20;93332.78;;;2.05;61.74
75166;BME280;63747;48.042;10.088;2024-02-26T03:17:21;93331.13;;;2.12;61.71
75166;BME280;63747;48.042;10.088;2024-02-26T03:20:24;93329.13;;;2.14;61.38
75166;BME280;63747;48.042;10.088;2024-02-26T03:23:25;93335.84;;;2.08;61.40
75166;BME280;63747;48.042;10.088;2024-02-26T03:26:25;93328.00;;;2.08;61.76
75166;BME280;63747;48.042;10.088;2024-02-26T03:29:26;93335.66;;;2.18;61.73
75166;BME280;63747;48.042;10.088;2024-02-26T03:32:27;93334.69;;;2.19;61.64
75166;BME280;63747;48.042;10.088;2024-02-26T03:35:27;93346.63;;;2.13;61.64
75166;BME280;63747;48.042;10.088;2024-02-26T03:38:29;93327.69;;;2.03;62.14
75166;BME280;63747;48.042;10.088;2024-02-26T03:41:30;93338.16;;;1.95;62.58
75166;BME280;63747;48.042;10.088;2024-02-26T03:44:32;93345.16;;;2.03;61.84
75166;BME280;63747;48.042;10.088;2024-02-26T03:47:32;93339.34;;;1.84;62.78
75166;BME280;63747;48.042;10.088;2024-02-26T03:50:33;93345.38;;;1.85;63.17
75166;BME280;63747;48.042;10.088;2024-02-26T03:53:34;93346.84;;;1.87;63.36
75166;BME280;63747;48.042;10.088;2024-02-26T03:56:35;93346.69;;;1.81;63.65
75166;BME280;63747;48.042;10.088;2024-02-26T03:59:36;93343.59;;;1.85;63.49
75166;BME280;63747;48.042;10.088;2024-02-26T04:02:36;93348.47;;;1.80;64.10
75166;BME280;63747;48.042;10.088;2024-02-26T04:05:37;93344.72;;;1.91;63.87
75166;BME280;63747;48.042;10.088;2024-02-26T04:08:38;93355.03;;;1.84;64.25
75166;BME280;63747;48.042;10.088;2024-02-26T04:11:38;93350.09;;;1.98;64.14
75166;BME280;63747;48.042;10.088;2024-02-26T04:14:39;93337.16;;;2.12;64.04
75166;BME280;63747;48.042;10.088;2024-02-26T04:17:41;93328.78;;;2.17;64.06
75166;BME280;63747;48.042;10.088;2024-02-26T04:20:42;93327.84;;;2.18;63.56
75166;BME280;63747;48.042;10.088;2024-02-26T04:23:42;93329.31;;;2.12;63.77
75166;BME280;63747;48.042;10.088;2024-02-26T04:26:43;93329.78;;;2.16;64.01
75166;BME280;63747;48.042;10.088;2024-02-26T04:29:44;93340.22;;;2.16;64.12
75166;BME280;63747;48.042;10.088;2024-02-26T04:32:44;93330.25;;;2.20;64.03
75166;BME280;63747;48.042;10.088;2024-02-26T04:35:45;93327.84;;;2.18;64.08
75166;BME280;63747;48.042;10.088;2024-02-26T04:38:46;93328.63;;;2.19;64.14
75166;BME280;63747;48.042;10.088;2024-02-26T04:41:46;93327.66;;;2.20;64.34
75166;BME280;63747;48.042;10.088;2024-02-26T04:44:47;93333.84;;;2.27;64.13
75166;BME280;63747;48.042;10.088;2024-02-26T04:47:48;93346.59;;;2.22;64.34
75166;BME280;63747;48.042;10.088;2024-02-26T04:50:48;93345.28;;;2.26;64.20
75166;BME280;63747;48.042;10.088;2024-02-26T04:53:49;93341.72;;;2.10;64.49
75166;BME280;63747;48.042;10.088;2024-02-26T04:56:50;93331.75;;;2.14;64.60
75166;BME280;63747;48.042;10.088;2024-02-26T04:59:50;93330.59;;;2.16;64.60
75166;BME280;63747;48.042;10.088;2024-02-26T05:02:51;93328.53;;;1.96;65.18
75166;BME280;63747;48.042;10.088;2024-02-26T05:05:52;93317.75;;;1.99;65.29
75166;BME280;63747;48.042;10.088;2024-02-26T05:08:52;93314.75;;;2.10;65.16
75166;BME280;63747;48.042;10.088;2024-02-26T05:11:53;93318.03;;;2.12;64.91
75166;BME280;63747;48.042;10.088;2024-02-26T05:14:54;93332.56;;;2.14;64.79
75166;BME280;63747;48.042;10.088;2024-02-26T05:17:54;93321.00;;;2.01;65.02
75166;BME280;63747;48.042;10.088;2024-02-26T05:20:55;93330.28;;;2.03;65.17
75166;BME280;63747;48.042;10.088;2024-02-26T05:23:56;93318.22;;;2.02;65.21
75166;BME280;63747;48.042;10.088;2024-02-26T05:26:56;93305.66;;;2.06;65.14
75166;BME280;63747;48.042;10.088;2024-02-26T05:29:57;93313.81;;;2.11;64.95
75166;BME280;63747;48.042;10.088;2024-02-26T05:32:58;93338.75;;;2.22;64.85
75166;BME280;63747;48.042;10.088;2024-02-26T05:35:58;93345.94;;;2.20;64.63
75166;BME280;63747;48.042;10.088;2024-02-26T05:39:04;93342.50;;;2.27;64.66
75166;BME280;63747;48.042;10.088;2024-02-26T05:42:04;93343.78;;;2.31;64.48
75166;BME280;63747;48.042;10.088;2024-02-26T05:45:05;93351.91;;;2.36;64.39
75166;BME280;63747;48.042;10.088;2024-02-26T05:48:06;93332.63;;;1.98;65.33
75166;BME280;63747;48.042;10.088;2024-02-26T05:51:07;93333.91;;;2.02;65.24
75166;BME280;63747;48.042;10.088;2024-02-26T05:54:08;93355.09;;;2.15;64.75
75166;BME280;63747;48.042;10.088;2024-02-26T05:57:10;93351.66;;;2.15;64.51
75166;BME280;63747;48.042;10.088;2024-02-26T06:00:12;93365.38;;;2.17;64.55
75166;BME280;63747;48.042;10.088;2024-02-26T06:03:12;93356.56;;;2.18;64.20
75166;BME280;63747;48.042;10.088;2024-02-26T06:06:13;93351.19;;;2.20;64.00
75166;BME280;63747;48.042;10.088;2024-02-26T06:09:15;93344.47;;;2.25;63.89
75166;BME280;63747;48.042;10.088;2024-02-26T06:12:15;93326.84;;;2.19;64.05
75166;BME280;63747;48.042;10.088;2024-02-26T06:15:16;93337.66;;;2.08;64.58
75166;BME280;63747;48.042;10.088;2024-02-26T06:18:17;93334.91;;;1.93;65.74
75166;BME280;63747;48.042;10.088;2024-02-26T06:21:18;93340.34;;;1.67;66.86
75166;BME280;63747;48.042;10.088;2024-02-26T06:24:19;93354.06;;;1.77;66.47
75166;BME280;63747;48.042;10.088;2024-02-26T06:27:20;93358.59;;;1.75;66.35
75166;BME280;63747;48.042;10.088;2024-02-26T06:30:22;93381.97;;;1.85;66.15
75166;BME280;63747;48.042;10.088;2024-02-26T06:33:22;93393.88;;;1.79;66.24
75166;BME280;63747;48.042;10.088;2024-02-26T06:36:23;93388.00;;;1.77;66.17
75166;BME280;63747;48.042;10.088;2024-02-26T06:39:24;93400.56;;;1.74;66.20
75166;BME280;63747;48.042;10.088;2024-02-26T06:42:24;93385.06;;;1.80;66.13
75166;BME280;63747;48.042;10.088;2024-02-26T06:45:25;93375.41;;;1.89;65.71
75166;BME280;63747;48.042;10.088;2024-02-26T06:48:26;93357.47;;;1.78;65.92
75166;BME280;63747;48.042;10.088;2024-02-26T06:51:26;93372.13;;;1.95;65.80
75166;BME280;63747;48.042;10.088;2024-02-26T06:54:27;93370.00;;;2.07;65.49
75166;BME280;63747;48.042;10.088;2024-02-26T06:57:28;93381.91;;;2.18;65.23
75166;BME280;63747;48.042;10.088;2024-02-26T07:00:28;93385.63;;;2.31;65.07
75166;BME280;63747;48.042;10.088;2024-02-26T07:03:29;93408.66;;;2.28;64.92
75166;BME280;63747;48.042;10.088;2024-02-26T07:06:30;93421.09;;;2.26;64.90
75166;BME280;63747;48.042;10.088;2024-02-26T07:09:31;93409.44;;;2.36;64.75
75166;BME280;63747;48.042;10.088;2024-02-26T07:12:32;93422.66;;;2.43;64.29
75166;BME280;63747;48.042;10.088;2024-02-26T07:15:33;93413.19;;;2.42;64.17
75166;BME280;63747;48.042;10.088;2024-02-26T07:18:33;93416.28;;;2.46;64.03
75166;BME280;63747;48.042;10.088;2024-02-26T07:21:34;93416.94;;;2.48;63.92
75166;BME280;63747;48.042;10.088;2024-02-26T07:24:35;93423.44;;;2.60;63.68
75166;BME280;63747;48.042;10.088;2024-02-26T07:27:35;93418.84;;;2.62;63.54
75166;BME280;63747;48.042;10.088;2024-02-26T07:30:36;93425.06;;;2.61;63.37
75166;BME280;63747;48.042;10.088;2024-02-26T07:33:37;93429.31;;;2.62;63.48
75166;BME280;63747;48.042;10.088;2024-02-26T07:36:37;93426.34;;;2.73;63.37
75166;BME280;63747;48.042;10.088;2024-02-26T07:39:38;93431.34;;;2.83;63.24
75166;BME280;63747;48.042;10.088;2024-02-26T07:42:38;93438.84;;;2.94;62.96
75166;BME280;63747;48.042;10.088;2024-02-26T07:45:39;93447.59;;;3.09;63.04
75166;BME280;63747;48.042;10.088;2024-02-26T07:48:40;93438.88;;;3.17;62.47
75166;BME280;63747;48.042;10.088;2024-02-26T07:51:42;93444.13;;;3.17;62.33
75166;BME280;63747;48.042;10.088;2024-02-26T07:54:42;93439.63;;;3.25;62.07
75166;BME280;63747;48.042;10.088;2024-02-26T07:57:43;93442.38;;;3.32;61.80
75166;BME280;63747;48.042;10.088;2024-02-26T08:00:44;93449.28;;;3.25;61.83
75166;BME280;63747;48.042;10.088;2024-02-26T08:03:46;93455.16;;;3.35;62.20
75166;BME280;63747;48.042;10.088;2024-02-26T08:06:47;93452.75;;;3.57;62.09
75166;BME280;63747;48.042;10.088;2024-02-26T08:09:48;93448.56;;;3.70;62.24
75166;BME280;63747;48.042;10.088;2024-02-26T08:12:48;93446.25;;;3.75;62.11
75166;BME280;63747;48.042;10.088;2024-02-26T08:15:49;93444.31;;;3.69;62.67
75166;BME280;63747;48.042;10.088;2024-02-26T08:18:50;93447.91;;;3.91;62.47
75166;BME280;63747;48.042;10.088;2024-02-26T08:21:50;93450.13;;;4.02;62.45
75166;BME280;63747;48.042;10.088;2024-02-26T08:24:51;93457.91;;;4.11;62.53
75166;BME280;63747;48.042;10.088;2024-02-26T08:27:52;93443.91;;;4.18;62.46
75166;BME280;63747;48.042;10.088;2024-02-26T08:30:53;93432.09;;;4.22;62.22
75166;BME280;63747;48.042;10.088;2024-02-26T08:33:54;93441.50;;;4.31;61.86
75166;BME280;63747;48.042;10.088;2024-02-26T08:36:54;93440.38;;;4.49;61.68
75166;BME280;63747;48.042;10.088;2024-02-26T08:39:55;93432.81;;;4.31;61.76
75166;BME280;63747;48.042;10.088;2024-02-26T08:42:56;93441.59;;;4.38;61.51
75166;BME280;63747;48.042;10.088;2024-02-26T08:45:57;93439.97;;;4.37;61.37
75166;BME280;63747;48.042;10.088;2024-02-26T08:48:57;93438.81;;;4.54;61.43
75166;BME280;63747;48.042;10.088;2024-02-26T08:51:58;93436.13;;;4.48;61.61
75166;BME280;63747;48.042;10.088;2024-02-26T08:54:59;93430.78;;;4.41;62.02
75166;BME280;63747;48.042;10.088;2024-02-26T08:58:00;93431.47;;;4.35;62.49
75166;BME280;63747;48.042;10.088;2024-02-26T09:01:00;93436.88;;;4.33;62.63
75166;BME280;63747;48.042;10.088;2024-02-26T09:04:01;93429.69;;;4.36;62.74
75166;BME280;63747;48.042;10.088;2024-02-26T09:07:02;93425.25;;;4.36;62.59
75166;BME280;63747;48.042;10.088;2024-02-26T09:10:03;93438.28;;;4.44;62.24
75166;BME280;63747;48.042;10.088;2024-02-26T09:13:04;93442.09;;;4.56;62.51
75166;BME280;63747;48.042;10.088;2024-02-26T09:16:06;93433.84;;;4.74;62.04
75166;BME280;63747;48.042;10.088;2024-02-26T09:19:06;93433.66;;;4.91;62.07
75166;BME280;63747;48.042;10.088;2024-02-26T09:22:07;93439.28;;;5.02;61.95
75166;BME280;63747;48.042;10.088;2024-02-26T09:25:08;93445.50;;;5.01;61.21
75166;BME280;63747;48.042;10.088;2024-02-26T09:28:08;93452.22;;;5.04;61.15
75166;BME280;63747;48.042;10.088;2024-02-26T09:31:09;93455.38;;;4.99;61.33
75166;BME280;63747;48.042;10.088;2024-02-26T09:34:10;93455.34;;;5.14;60.96
75166;BME280;63747;48.042;10.088;2024-02-26T09:37:10;93458.56;;;5.09;61.27
75166;BME280;63747;48.042;10.088;2024-02-26T09:40:12;93457.66;;;5.02;60.74
75166;BME280;63747;48.042;10.088;2024-02-26T09:43:14;93446.31;;;4.87;61.13
75166;BME280;63747;48.042;10.088;2024-02-26T09:46:15;93453.66;;;4.77;62.28
75166;BME280;63747;48.042;10.088;2024-02-26T09:49:21;93463.53;;;4.75;62.04
75166;BME280;63747;48.042;10.088;2024-02-26T09:52:25;93468.03;;;4.81;62.00
75166;BME280;63747;48.042;10.088;2024-02-26T09:55:26;93469.69;;;4.97;61.97
75166;BME280;63747;48.042;10.088;2024-02-26T09:58:28;93482.50;;;5.51;61.80
75166;BME280;63747;48.042;10.088;2024-02-26T10:01:29;93481.78;;;5.78;61.75
75166;BME280;63747;48.042;10.088;2024-02-26T10:04:33;93479.72;;;6.16;59.81
75166;BME280;63747;48.042;10.088;2024-02-26T10:07:35;93473.84;;;6.36;60.10
75166;BME280;63747;48.042;10.088;2024-02-26T10:10:37;93471.75;;;6.52;60.01
75166;BME280;63747;48.042;10.088;2024-02-26T10:13:38;93474.03;;;6.62;59.68
75166;BME280;63747;48.042;10.088;2024-02-26T10:16:39;93472.00;;;6.64;59.27
75166;BME280;63747;48.042;10.088;2024-02-26T10:19:40;93465.53;;;6.95;59.71
75166;BME280;63747;48.042;10.088;2024-02-26T10:22:41;93469.09;;;6.80;59.30
75166;BME280;63747;48.042;10.088;2024-02-26T10:25:54;93474.28;;;6.39;60.14
75166;BME280;63747;48.042;10.088;2024-02-26T10:28:59;93481.25;;;6.25;60.91
75166;BME280;63747;48.042;10.088;2024-02-26T10:32:01;93481.44;;;6.24;61.32
75166;BME280;63747;48.042;10.088;2024-02-26T10:35:02;93489.41;;;6.31;61.03
75166;BME280;63747;48.042;10.088;2024-02-26T10:38:03;93481.78;;;6.42;60.92
75166;BME280;63747;48.042;10.088;2024-02-26T10:41:06;93476.25;;;6.59;60.98
75166;BME280;63747;48.042;10.088;2024-02-26T10:44:09;93473.06;;;6.70;60.32
75166;BME280;63747;48.042;10.088;2024-02-26T10:47:13;93474.91;;;6.69;60.66
75166;BME280;63747;48.042;10.088;2024-02-26T10:50:14;93481.31;;;6.88;60.54
75166;BME280;63747;48.042;10.088;2024-02-26T10:53:21;93476.47;;;6.92;60.20
75166;BME280;63747;48.042;10.088;2024-02-26T10:56:26;93482.06;;;6.82;60.37
75166;BME280;63747;48.042;10.088;2024-02-26T10:59:28;93475.59;;;6.78;60.35
75166;BME280;63747;48.042;10.088;2024-02-26T11:02:33;93477.16;;;6.72;60.79
75166;BME280;63747;48.042;10.088;2024-02-26T11:05:35;93477.97;;;6.73;61.19
75166;BME280;63747;48.042;10.088;2024-02-26T11:08:36;93478.63;;;6.82;61.26
75166;BME280;63747;48.042;10.088;2024-02-26T11:11:37;93474.25;;;6.95;61.15
75166;BME280;63747;48.042;10.088;2024-02-26T11:14:39;93471.72;;;7.15;60.87
75166;BME280;63747;48.042;10.088;2024-02-26T11:17:40;93468.19;;;7.36;60.79
75166;BME280;63747;48.042;10.088;2024-02-26T11:20:44;93465.25;;;7.66;59.94
75166;BME280;63747;48.042;10.088;2024-02-26T11:23:46;93463.84;;;7.70;58.47
75166;BME280;63747;48.042;10.088;2024-02-26T11:26:47;93466.28;;;7.71;58.80
75166;BME280;63747;48.042;10.088;2024-02-26T11:29:52;93462.50;;;7.80;58.25
75166;BME280;63747;48.042;10.088;2024-02-26T11:32:55;93465.56;;;7.91;58.26
75166;BME280;63747;48.042;10.088;2024-02-26T11:35:55;93473.44;;;7.84;57.72
75166;BME280;63747;48.042;10.088;2024-02-26T11:38:56;93473.25;;;7.85;57.04
75166;BME280;63747;48.042;10.088;2024-02-26T11:42:05;93472.63;;;7.83;58.04
75166;BME280;63747;48.042;10.088;2024-02-26T11:48:48;93469.72;;;7.72;58.82
75166;BME280;63747;48.042;10.088;2024-02-26T11:51:53;93478.13;;;7.82;58.35
75166;BME280;63747;48.042;10.088;2024-02-26T11:54:58;93473.66;;;7.82;58.30
75166;BME280;63747;48.042;10.088;2024-02-26T11:57:59;93472.06;;;7.95;58.67
75166;BME280;63747;48.042;10.088;2024-02-26T12:01:03;93483.44;;;8.02;58.65
75166;BME280;63747;48.042;10.088;2024-02-26T12:04:11;93479.34;;;7.93;58.46
75166;BME280;63747;48.042;10.088;2024-02-26T12:07:14;93477.13;;;7.89;58.75
75166;BME280;63747;48.042;10.088;2024-02-26T12:10:26;93484.38;;;7.74;59.15
75166;BME280;63747;48.042;10.088;2024-02-26T12:13:31;93484.75;;;7.71;59.56
75166;BME280;63747;48.042;10.088;2024-02-26T12:16:36;93482.56;;;7.75;59.50
75166;BME280;63747;48.042;10.088;2024-02-26T12:19:37;93488.56;;;7.62;59.71
75166;BME280;63747;48.042;10.088;2024-02-26T12:22:39;93490.97;;;7.57;59.99
75166;BME280;63747;48.042;10.088;2024-02-26T12:25:40;93489.97;;;7.58;59.82
75166;BME280;63747;48.042;10.088;2024-02-26T12:28:41;93488.00;;;7.67;59.77
75166;BME280;63747;48.042;10.088;2024-02-26T12:31:43;93494.66;;;7.62;59.78
75166;BME280;63747;48.042;10.088;2024-02-26T12:34:44;93505.16;;;7.49;60.16
75166;BME280;63747;48.042;10.088;2024-02-26T12:37:46;93496.44;;;7.49;60.43
75166;BME280;63747;48.042;10.088;2024-02-26T12:40:47;93503.56;;;7.61;60.56
75166;BME280;63747;48.042;10.088;2024-02-26T12:43:49;93501.56;;;7.70;60.34
75166;BME280;63747;48.042;10.088;2024-02-26T12:46:49;93504.59;;;7.60;60.11
75166;BME280;63747;48.042;10.088;2024-02-26T12:49:50;93502.31;;;7.51;60.43
75166;BME280;63747;48.042;10.088;2024-02-26T12:52:53;93506.19;;;7.55;60.40
75166;BME280;63747;48.042;10.088;2024-02-26T12:55:55;93516.91;;;7.47;60.50
75166;BME280;63747;48.042;10.088;2024-02-26T12:58:55;93507.97;;;7.48;60.60
75166;BME280;63747;48.042;10.088;2024-02-26T13:01:57;93527.06;;;7.56;60.55
75166;BME280;63747;48.042;10.088;2024-02-26T13:04:58;93532.81;;;7.67;60.70
75166;BME280;63747;48.042;10.088;2024-02-26T13:08:01;93529.75;;;7.63;60.86
75166;BME280;63747;48.042;10.088;2024-02-26T13:11:02;93540.94;;;7.72;60.93
75166;BME280;63747;48.042;10.088;2024-02-26T13:14:03;93552.19;;;7.87;60.50
75166;BME280;63747;48.042;10.088;2024-02-26T13:17:04;93555.72;;;8.07;60.36
75166;BME280;63747;48.042;10.088;2024-02-26T13:20:05;93548.84;;;8.33;59.75
75166;BME280;63747;48.042;10.088;2024-02-26T13:23:07;93554.56;;;8.43;59.80
75166;BME280;63747;48.042;10.088;2024-02-26T13:26:09;93565.56;;;8.60;59.69
75166;BME280;63747;48.042;10.088;2024-02-26T13:29:18;93552.97;;;8.62;58.81
75166;BME280;63747;48.042;10.088;2024-02-26T13:32:20;93555.63;;;8.55;58.36
75166;BME280;63747;48.042;10.088;2024-02-26T13:35:21;93562.31;;;8.64;58.20
75166;BME280;63747;48.042;10.088;2024-02-26T13:38:22;93557.66;;;8.73;57.66
75166;BME280;63747;48.042;10.088;2024-02-26T13:41:23;93564.75;;;8.79;57.73
75166;BME280;63747;48.042;10.088;2024-02-26T13:44:24;93559.69;;;8.97;57.54
75166;BME280;63747;48.042;10.088;2024-02-26T13:47:24;93557.25;;;9.16;57.21
75166;BME280;63747;48.042;10.088;2024-02-26T13:50:25;93556.84;;;9.32;57.10
75166;BME280;63747;48.042;10.088;2024-02-26T13:53:26;93558.06;;;9.43;56.94
75166;BME280;63747;48.042;10.088;2024-02-26T13:56:26;93558.63;;;9.51;57.11
75166;BME280;63747;48.042;10.088;2024-02-26T13:59:27;93554.94;;;9.59;57.22
75166;BME280;63747;48.042;10.088;2024-02-26T14:02:28;93557.78;;;9.71;57.13
75166;BME280;63747;48.042;10.088;2024-02-26T14:05:29;93548.22;;;9.70;56.62
75166;BME280;63747;48.042;10.088;2024-02-26T14:08:30;93555.50;;;9.74;56.81
75166;BME280;63747;48.042;10.088;2024-02-26T14:11:30;93550.22;;;9.74;56.81
75166;BME280;63747;48.042;10.088;2024-02-26T14:14:31;93554.09;;;9.72;56.44
75166;BME280;63747;48.042;10.088;2024-02-26T14:17:35;93550.88;;;9.70;56.77
75166;BME280;63747;48.042;10.088;2024-02-26T14:20:36;93552.06;;;9.67;56.65
75166;BME280;63747;48.042;10.088;2024-02-26T14:23:36;93542.31;;;9.68;56.72
75166;BME280;63747;48.042;10.088;2024-02-26T14:26:37;93541.50;;;9.67;56.76
75166;BME280;63747;48.042;10.088;2024-02-26T14:29:38;93537.50;;;9.45;56.54
75166;BME280;63747;48.042;10.088;2024-02-26T14:32:41;93531.63;;;9.36;56.34
75166;BME280;63747;48.042;10.088;2024-02-26T14:35:42;93533.84;;;9.33;56.46
75166;BME280;63747;48.042;10.088;2024-02-26T14:38:43;93536.09;;;9.22;56.69
75166;BME280;63747;48.042;10.088;2024-02-26T14:41:44;93535.88;;;9.24;56.84
75166;BME280;63747;48.042;10.088;2024-02-26T14:44:45;93537.09;;;9.21;56.72
75166;BME280;63747;48.042;10.088;2024-02-26T14:47:47;93534.66;;;9.26;56.66
75166;BME280;63747;48.042;10.088;2024-02-26T14:50:49;93541.56;;;9.27;56.78
75166;BME280;63747;48.042;10.088;2024-02-26T14:53:50;93536.28;;;9.34;56.45
75166;BME280;63747;48.042;10.088;2024-02-26T14:56:51;93551.34;;;9.34;56.32
75166;BME280;63747;48.042;10.088;2024-02-26T14:59:52;93544.00;;;9.29;56.26
75166;BME280;63747;48.042;10.088;2024-02-26T15:02:52;93537.09;;;9.15;56.49
75166;BME280;63747;48.042;10.088;2024-02-26T15:05:54;93537.91;;;9.29;56.78
75166;BME280;63747;48.042;10.088;2024-02-26T15:08:55;93539.34;;;9.24;56.59
75166;BME280;63747;48.042;10.088;2024-02-26T15:11:56;93533.66;;;9.08;56.89
75166;BME280;63747;48.042;10.088;2024-02-26T15:14:57;93536.13;;;9.03;57.13
75166;BME280;63747;48.042;10.088;2024-02-26T15:17:58;93539.34;;;9.18;56.92
75166;BME280;63747;48.042;10.088;2024-02-26T15:20:58;93533.25;;;9.24;57.16
75166;BME280;63747;48.042;10.088;2024-02-26T15:23:59;93540.16;;;9.25;57.10
75166;BME280;63747;48.042;10.088;2024-02-26T15:27:00;93540.16;;;9.25;57.16
75166;BME280;63747;48.042;10.088;2024-02-26T15:30:01;93539.34;;;9.24;57.03
75166;BME280;63747;48.042;10.088;2024-02-26T15:33:02;93537.94;;;9.15;57.05
75166;BME280;63747;48.042;10.088;2024-02-26T15:36:03;93545.25;;;9.07;57.51
75166;BME280;63747;48.042;10.088;2024-02-26T15:39:04;93543.63;;;9.06;57.38
75166;BME280;63747;48.042;10.088;2024-02-26T15:42:07;93549.94;;;9.05;57.09
75166;BME280;63747;48.042;10.088;2024-02-26T15:45:08;93540.78;;;9.01;57.20
75166;BME280;63747;48.042;10.088;2024-02-26T15:48:09;93546.69;;;9.03;57.52
75166;BME280;63747;48.042;10.088;2024-02-26T15:51:21;93550.94;;;9.04;57.70
75166;BME280;63747;48.042;10.088;2024-02-26T15:54:24;93558.66;;;8.98;57.93
75166;BME280;63747;48.042;10.088;2024-02-26T15:57:24;93567.84;;;8.96;58.18
75166;BME280;63747;48.042;10.088;2024-02-26T16:00:25;93567.03;;;8.89;58.11
75166;BME280;63747;48.042;10.088;2024-02-26T16:03:26;93574.53;;;8.79;58.04